Terminal Aerodrome Forecast
Issued by NWS Binghamton, NY

Home | Current Version | Previous Version | Text Only | Print | Product List | Glossary On
Versions: 1 2 3 4 5 6 7 8 9 10 11 12 13 14 15 16 17 18 19 20 21
000
FTUS41 KBGM 201400 AAA
TAFAVP
TAF AMD
KAVP 201404Z 2014/2112 20010KT P6SM SCT018 OVC025
     FM201600 22012G18KT P6SM BKN040
     FM202300 19007KT P6SM SCT250
     FM210600 19004KT P6SM OVC025=

USA.gov is the U.S. government's official web portal to all federal, state and local government web resources and services.